Time;durP1;ratioP1;P1;durP2;ratioP2;P2;SDS_P1;SDS_P2;PMS_P1;PMS_P2;Temp;Humidity;BMP_temperature;BMP_pressure;BME280_temperature;BME280_humidity;BME280_pressure;Samples;Min_cycle;Max_cycle;Signal;HPM_P1;HPM_P2
2022/07/20 00:01:02;;;;;;;3.00;1.38;;;;;;;;;;5044537;28;20095;-81
2022/07/20 00:03:48;;;;;;;2.55;1.42;;;;;;;;;;5032535;28;20045;-81
2022/07/20 00:06:34;;;;;;;3.00;1.42;;;;;;;;;;5033546;28;20033;-81
2022/07/20 00:12:23;;;;;;;2.47;1.40;;;;;;;;;;5040566;28;20041;-81
2022/07/20 00:15:09;;;;;;;3.35;1.27;;;;;;;;;;5046890;28;20037;-81
2022/07/20 00:17:55;;;;;;;2.22;1.60;;;;;;;;;;5045618;28;20045;-81
2022/07/20 00:20:41;;;;;;;1.98;1.58;;;;;;;;;;5046272;28;20443;-81
2022/07/20 00:23:26;;;;;;;2.08;1.30;;;;;;;;;;5046019;28;20068;-81
2022/07/20 00:26:12;;;;;;;3.13;1.30;;;;;;;;;;5031930;28;20561;-81
2022/07/20 00:28:58;;;;;;;2.15;1.60;;;;;;;;;;5045332;28;20041;-81
2022/07/20 00:31:44;;;;;;;3.35;1.35;;;;;;;;;;5030032;28;20056;-81
2022/07/20 00:34:29;;;;;;;2.00;1.10;;;;;;;;;;5044617;28;20103;-81
2022/07/20 00:37:15;;;;;;;2.50;1.67;;;;;;;;;;5031458;28;20034;-81
2022/07/20 00:40:01;;;;;;;2.80;1.13;;;;;;;;;;5043355;28;20048;-81
2022/07/20 00:42:46;;;;;;;2.85;1.50;;;;;;;;;;5030307;28;20459;-81
2022/07/20 00:45:32;;;;;;;1.80;1.27;;;;;;;;;;5030855;28;20504;-81
2022/07/20 00:48:18;;;;;;;1.90;1.33;;;;;;;;;;5044356;28;20041;-81
2022/07/20 00:51:04;;;;;;;3.28;1.20;;;;;;;;;;5030660;28;20040;-81
2022/07/20 00:53:51;;;;;;;2.88;1.42;;;;;;;;;;5030459;28;20550;-80
2022/07/20 00:56:36;;;;;;;2.85;1.60;;;;;;;;;;5030420;28;20029;-81
2022/07/20 00:59:22;;;;;;;2.40;1.33;;;;;;;;;;5045523;28;20434;-81
2022/07/20 01:02:08;;;;;;;2.15;1.20;;;;;;;;;;5031740;28;20427;-81
2022/07/20 01:04:54;;;;;;;4.35;1.92;;;;;;;;;;5029492;28;20524;-81
2022/07/20 01:07:43;;;;;;;2.80;1.80;;;;;;;;;;5044370;28;20044;-81
2022/07/20 01:10:29;;;;;;;2.42;1.40;;;;;;;;;;5020642;28;20045;-81
2022/07/20 01:13:14;;;;;;;2.08;1.27;;;;;;;;;;5049279;28;20124;-81
2022/07/20 01:16:00;;;;;;;5.10;1.65;;;;;;;;;;5048495;28;20041;-81
2022/07/20 01:18:46;;;;;;;1.88;1.00;;;;;;;;;;5049701;28;20397;-82
2022/07/20 01:21:32;;;;;;;3.10;1.60;;;;;;;;;;5049536;28;20042;-81
2022/07/20 01:24:18;;;;;;;3.00;1.20;;;;;;;;;;5035178;28;20042;-81
2022/07/20 01:27:04;;;;;;;3.25;1.52;;;;;;;;;;5049307;28;20050;-81
2022/07/20 01:29:50;;;;;;;2.40;1.33;;;;;;;;;;5034569;28;20037;-81
2022/07/20 01:32:35;;;;;;;5.03;2.30;;;;;;;;;;5049029;28;20037;-81
2022/07/20 01:35:21;;;;;;;3.38;1.40;;;;;;;;;;5035371;28;20514;-81
2022/07/20 01:38:07;;;;;;;2.83;1.52;;;;;;;;;;5047345;28;20040;-81
2022/07/20 01:40:52;;;;;;;2.28;1.50;;;;;;;;;;5034353;28;20085;-81
2022/07/20 01:43:38;;;;;;;2.80;1.50;;;;;;;;;;5047682;28;20029;-81
2022/07/20 01:46:24;;;;;;;1.48;1.27;;;;;;;;;;5034539;28;20045;-81
2022/07/20 01:49:10;;;;;;;3.38;1.75;;;;;;;;;;5048016;28;20128;-81
2022/07/20 01:51:55;;;;;;;4.28;1.60;;;;;;;;;;5047762;28;20033;-81
2022/07/20 01:54:41;;;;;;;2.70;1.50;;;;;;;;;;5033648;28;20407;-81
2022/07/20 01:57:27;;;;;;;3.38;1.48;;;;;;;;;;5033459;28;20476;-81
2022/07/20 02:00:13;;;;;;;3.55;1.45;;;;;;;;;;5048634;28;20148;-81
2022/07/20 02:02:59;;;;;;;4.45;2.20;;;;;;;;;;5048627;28;20045;-81
2022/07/20 02:05:45;;;;;;;3.97;2.03;;;;;;;;;;5048783;28;20077;-81
2022/07/20 02:08:30;;;;;;;2.55;1.83;;;;;;;;;;5048409;28;20038;-81
2022/07/20 02:11:16;;;;;;;3.08;1.83;;;;;;;;;;5046765;28;20053;-81
2022/07/20 02:14:02;;;;;;;5.20;2.22;;;;;;;;;;5046965;28;20060;-81
2022/07/20 02:16:47;;;;;;;3.53;2.55;;;;;;;;;;5048611;28;20041;-81
2022/07/20 02:19:33;;;;;;;3.85;2.53;;;;;;;;;;5032757;28;20041;-81
2022/07/20 02:22:19;;;;;;;5.88;2.90;;;;;;;;;;5034097;28;20049;-81
2022/07/20 02:25:05;;;;;;;5.00;3.25;;;;;;;;;;5048087;28;20065;-81
2022/07/20 02:27:51;;;;;;;3.70;2.95;;;;;;;;;;5033318;28;20527;-81
2022/07/20 02:30:37;;;;;;;5.40;4.13;;;;;;;;;;5048111;28;20048;-81
2022/07/20 02:33:22;;;;;;;4.60;3.45;;;;;;;;;;5047477;28;20492;-80
2022/07/20 02:36:08;;;;;;;6.15;3.67;;;;;;;;;;5034249;28;20029;-81
2022/07/20 02:38:55;;;;;;;6.30;4.82;;;;;;;;;;5031405;28;20061;-81
2022/07/20 02:41:41;;;;;;;5.07;3.80;;;;;;;;;;5033063;28;20413;-80
2022/07/20 02:44:26;;;;;;;6.55;4.80;;;;;;;;;;5032992;28;20061;-80
2022/07/20 02:47:12;;;;;;;5.22;4.30;;;;;;;;;;5047851;28;20079;-80
2022/07/20 02:50:00;;;;;;;6.68;4.63;;;;;;;;;;5046117;28;20033;-81
2022/07/20 02:52:45;;;;;;;8.10;5.00;;;;;;;;;;5032437;28;20033;-80
2022/07/20 02:55:31;;;;;;;7.30;5.18;;;;;;;;;;5047468;28;20045;-80
2022/07/20 02:58:17;;;;;;;11.85;5.55;;;;;;;;;;5032653;28;20037;-81
2022/07/20 03:01:03;;;;;;;8.35;5.47;;;;;;;;;;5032353;28;20045;-80
2022/07/20 03:03:48;;;;;;;8.75;6.22;;;;;;;;;;5031227;28;20045;-80
2022/07/20 03:06:34;;;;;;;7.10;5.20;;;;;;;;;;5045584;28;20050;-81
2022/07/20 03:09:20;;;;;;;6.70;5.88;;;;;;;;;;5031230;28;20424;-81
2022/07/20 03:12:06;;;;;;;8.43;5.82;;;;;;;;;;5031502;28;20416;-80
2022/07/20 03:14:52;;;;;;;9.88;6.80;;;;;;;;;;5046645;28;20527;-81
2022/07/20 03:17:45;;;;;;;7.82;6.38;;;;;;;;;;5047122;28;20424;-81
2022/07/20 03:20:32;;;;;;;10.15;7.10;;;;;;;;;;5045658;28;20130;-80
2022/07/20 03:23:17;;;;;;;9.27;6.50;;;;;;;;;;5046152;28;20037;-80
2022/07/20 03:26:03;;;;;;;7.82;6.55;;;;;;;;;;5047280;28;20044;-80
2022/07/20 03:28:49;;;;;;;9.18;7.28;;;;;;;;;;5047350;28;20041;-80
2022/07/20 03:31:34;;;;;;;10.85;8.10;;;;;;;;;;5042692;28;20045;-81
2022/07/20 03:34:20;;;;;;;8.98;7.95;;;;;;;;;;5045778;28;20584;-81
2022/07/20 03:37:06;;;;;;;9.60;8.60;;;;;;;;;;5046677;28;20128;-81
2022/07/20 03:39:52;;;;;;;11.38;7.68;;;;;;;;;;5046576;28;20101;-81
2022/07/20 03:42:37;;;;;;;10.93;9.20;;;;;;;;;;5046641;28;20045;-80
2022/07/20 03:45:23;;;;;;;10.40;8.35;;;;;;;;;;5030797;28;20120;-80
2022/07/20 03:48:09;;;;;;;10.10;8.90;;;;;;;;;;5043865;28;20045;-80
2022/07/20 03:50:54;;;;;;;10.65;8.30;;;;;;;;;;5047105;28;20065;-80
2022/07/20 03:53:40;;;;;;;9.70;8.65;;;;;;;;;;5046728;28;20038;-80
2022/07/20 03:56:26;;;;;;;12.55;8.98;;;;;;;;;;5044357;28;20045;-80
2022/07/20 03:59:12;;;;;;;9.77;8.02;;;;;;;;;;5031343;28;20113;-80
2022/07/20 04:01:57;;;;;;;10.90;8.88;;;;;;;;;;5032486;28;20049;-80
2022/07/20 04:04:43;;;;;;;14.25;8.88;;;;;;;;;;5044818;28;20091;-80
2022/07/20 04:07:29;;;;;;;11.75;9.48;;;;;;;;;;5046227;28;20084;-80
2022/07/20 04:10:15;;;;;;;12.38;9.00;;;;;;;;;;5030887;28;20041;-80
2022/07/20 04:13:02;;;;;;;11.55;9.00;;;;;;;;;;5029720;28;20120;-79
2022/07/20 04:15:48;;;;;;;11.95;8.68;;;;;;;;;;5031807;28;20048;-80
2022/07/20 04:18:34;;;;;;;10.55;9.40;;;;;;;;;;5046187;28;20393;-80
2022/07/20 04:21:19;;;;;;;10.60;8.70;;;;;;;;;;5046111;28;20488;-80
2022/07/20 04:24:05;;;;;;;10.90;9.43;;;;;;;;;;5046069;28;20464;-80
2022/07/20 04:26:51;;;;;;;11.95;10.20;;;;;;;;;;5044809;28;20120;-80
2022/07/20 04:29:37;;;;;;;11.57;10.35;;;;;;;;;;5029817;28;20044;-80
2022/07/20 04:32:23;;;;;;;13.27;9.80;;;;;;;;;;5045101;28;20128;-80
2022/07/20 04:35:09;;;;;;;12.57;9.70;;;;;;;;;;5030374;28;20045;-80
2022/07/20 04:37:55;;;;;;;12.18;10.50;;;;;;;;;;5030760;28;20041;-80
2022/07/20 04:40:40;;;;;;;12.60;10.27;;;;;;;;;;5045281;28;20068;-80
2022/07/20 04:43:26;;;;;;;11.25;9.93;;;;;;;;;;5031055;28;20100;-80
2022/07/20 04:46:12;;;;;;;11.50;9.95;;;;;;;;;;5044160;28;20037;-80
2022/07/20 04:48:57;;;;;;;12.38;9.32;;;;;;;;;;5043401;28;20049;-80
2022/07/20 04:51:43;;;;;;;13.13;10.20;;;;;;;;;;5045913;28;20056;-80
2022/07/20 04:54:29;;;;;;;12.35;11.05;;;;;;;;;;5044924;28;20122;-80
2022/07/20 04:57:15;;;;;;;12.38;9.18;;;;;;;;;;5043850;28;20033;-80
2022/07/20 05:00:01;;;;;;;12.13;9.82;;;;;;;;;;5045431;28;20049;-80
2022/07/20 05:02:46;;;;;;;12.93;10.45;;;;;;;;;;5030218;28;20045;-80
2022/07/20 05:05:32;;;;;;;12.45;10.98;;;;;;;;;;5045101;28;20037;-80
2022/07/20 05:08:18;;;;;;;12.95;10.43;;;;;;;;;;5029962;28;20581;-80
2022/07/20 05:11:04;;;;;;;12.80;10.32;;;;;;;;;;5044873;28;20459;-80
2022/07/20 05:13:50;;;;;;;15.02;10.60;;;;;;;;;;5029540;28;20029;-80
2022/07/20 05:16:35;;;;;;;12.10;10.80;;;;;;;;;;5029873;28;20129;-80
2022/07/20 05:19:21;;;;;;;12.73;10.50;;;;;;;;;;5030452;28;20038;-80
2022/07/20 05:22:07;;;;;;;11.18;9.95;;;;;;;;;;5045077;28;20124;-80
2022/07/20 05:24:52;;;;;;;10.40;9.32;;;;;;;;;;5045479;28;20042;-80
2022/07/20 05:27:38;;;;;;;14.35;10.90;;;;;;;;;;5045447;28;20045;-80
2022/07/20 05:30:24;;;;;;;14.23;10.55;;;;;;;;;;5029511;28;20042;-80
2022/07/20 05:33:10;;;;;;;11.93;10.60;;;;;;;;;;5044691;28;20463;-80
2022/07/20 05:35:55;;;;;;;13.30;10.05;;;;;;;;;;5044766;28;20095;-80
2022/07/20 05:38:41;;;;;;;10.65;9.55;;;;;;;;;;5044317;28;20037;-80
2022/07/20 05:41:27;;;;;;;12.40;10.73;;;;;;;;;;5030906;28;20419;-80
2022/07/20 05:44:13;;;;;;;13.02;10.35;;;;;;;;;;5044354;28;20049;-80
2022/07/20 05:46:58;;;;;;;12.32;10.90;;;;;;;;;;5044280;28;20041;-81
2022/07/20 05:49:48;;;;;;;13.02;10.90;;;;;;;;;;5044525;28;20044;-80
2022/07/20 05:52:34;;;;;;;12.48;10.38;;;;;;;;;;5043953;28;20670;-80
2022/07/20 05:55:19;;;;;;;12.50;10.57;;;;;;;;;;5032782;28;20034;-80
2022/07/20 05:58:06;;;;;;;12.38;10.60;;;;;;;;;;5048924;28;20072;-81
2022/07/20 06:00:52;;;;;;;14.85;11.48;;;;;;;;;;5033223;28;20041;-81
2022/07/20 06:03:37;;;;;;;11.52;10.32;;;;;;;;;;5047592;28;20419;-80
2022/07/20 06:06:23;;;;;;;12.38;11.07;;;;;;;;;;5047941;28;20045;-80
2022/07/20 06:09:09;;;;;;;13.18;10.25;;;;;;;;;;5032689;28;20045;-81
2022/07/20 06:11:55;;;;;;;13.75;10.23;;;;;;;;;;5033589;28;20497;-81
2022/07/20 06:14:41;;;;;;;12.77;11.43;;;;;;;;;;5047582;28;20037;-81
2022/07/20 06:17:37;;;;;;;13.18;11.23;;;;;;;;;;5032504;28;20030;-81
2022/07/20 06:20:23;;;;;;;14.65;11.43;;;;;;;;;;5033136;28;20052;-81
2022/07/20 06:23:09;;;;;;;12.38;10.57;;;;;;;;;;5047889;28;20178;-81
2022/07/20 06:25:54;;;;;;;15.68;11.68;;;;;;;;;;5047446;28;20451;-81
2022/07/20 06:28:40;;;;;;;12.10;10.02;;;;;;;;;;5032383;28;20045;-81
2022/07/20 06:31:26;;;;;;;11.05;9.75;;;;;;;;;;5047414;28;20041;-81
2022/07/20 06:34:13;;;;;;;11.68;9.98;;;;;;;;;;5032607;28;20052;-80
2022/07/20 06:36:58;;;;;;;11.48;10.27;;;;;;;;;;5048177;28;20090;-80
2022/07/20 06:39:44;;;;;;;11.77;10.00;;;;;;;;;;5047273;28;20095;-80
2022/07/20 06:42:30;;;;;;;14.90;10.65;;;;;;;;;;5031715;28;20128;-80
2022/07/20 06:45:16;;;;;;;12.05;9.68;;;;;;;;;;5047103;28;20030;-80
2022/07/20 06:48:02;;;;;;;12.50;10.00;;;;;;;;;;5047669;28;20424;-80
2022/07/20 06:50:49;;;;;;;10.43;8.93;;;;;;;;;;5033357;28;20040;-81
2022/07/20 06:53:34;;;;;;;11.70;9.77;;;;;;;;;;5046703;28;20463;-81
2022/07/20 06:56:20;;;;;;;10.63;9.52;;;;;;;;;;5048377;28;20048;-81
2022/07/20 06:59:06;;;;;;;11.23;9.20;;;;;;;;;;5045961;28;20118;-81
2022/07/20 07:01:52;;;;;;;10.27;8.43;;;;;;;;;;5030385;28;20037;-81
2022/07/20 07:04:38;;;;;;;12.20;8.75;;;;;;;;;;5045051;28;20052;-81
2022/07/20 07:07:24;;;;;;;10.27;8.95;;;;;;;;;;5031003;28;20038;-81
2022/07/20 07:10:10;;;;;;;11.80;8.65;;;;;;;;;;5047255;28;20049;-81
2022/07/20 07:12:56;;;;;;;11.98;8.73;;;;;;;;;;5044076;28;20045;-80
2022/07/20 07:15:42;;;;;;;11.20;8.65;;;;;;;;;;5032105;28;20048;-81
2022/07/20 07:18:28;;;;;;;10.32;8.15;;;;;;;;;;5045291;28;20041;-81
2022/07/20 07:21:13;;;;;;;8.57;7.60;;;;;;;;;;5047385;28;20041;-81
2022/07/20 07:23:59;;;;;;;9.75;8.75;;;;;;;;;;5047109;28;20045;-81
2022/07/20 07:26:45;;;;;;;9.32;7.65;;;;;;;;;;5045149;28;20423;-81
2022/07/20 07:29:30;;;;;;;12.57;7.88;;;;;;;;;;5045846;28;20033;-81
2022/07/20 07:32:16;;;;;;;8.45;7.47;;;;;;;;;;5047519;28;20110;-81
2022/07/20 07:35:02;;;;;;;9.40;8.43;;;;;;;;;;5032102;28;20052;-81
2022/07/20 07:37:48;;;;;;;9.73;7.50;;;;;;;;;;5046843;28;20052;-81
2022/07/20 07:40:34;;;;;;;9.13;7.45;;;;;;;;;;5031583;28;20048;-80
2022/07/20 07:43:19;;;;;;;10.13;7.45;;;;;;;;;;5043921;28;20439;-81
2022/07/20 07:46:05;;;;;;;9.02;7.20;;;;;;;;;;5032201;28;20099;-81
2022/07/20 07:48:51;;;;;;;10.25;7.18;;;;;;;;;;5031623;28;20096;-81
2022/07/20 07:51:37;;;;;;;9.55;6.75;;;;;;;;;;5030468;28;20496;-81
2022/07/20 07:54:23;;;;;;;10.52;7.45;;;;;;;;;;5031613;28;20127;-81
2022/07/20 07:57:09;;;;;;;7.75;6.95;;;;;;;;;;5046322;28;20045;-80
2022/07/20 07:59:55;;;;;;;9.30;7.88;;;;;;;;;;5031535;28;20037;-80
2022/07/20 08:02:40;;;;;;;8.90;7.40;;;;;;;;;;5045154;28;20581;-81
2022/07/20 08:05:26;;;;;;;8.18;6.30;;;;;;;;;;5031426;28;20526;-81
2022/07/20 08:08:12;;;;;;;8.52;6.72;;;;;;;;;;5045140;28;20415;-81
2022/07/20 08:10:58;;;;;;;8.30;6.47;;;;;;;;;;5030903;28;20048;-81
2022/07/20 08:13:44;;;;;;;9.88;6.22;;;;;;;;;;5031577;28;20052;-81
2022/07/20 08:16:31;;;;;;;7.75;6.47;;;;;;;;;;5044130;28;20037;-81
2022/07/20 08:19:17;;;;;;;9.40;6.43;;;;;;;;;;5044005;28;20034;-81
2022/07/20 08:22:02;;;;;;;8.93;7.03;;;;;;;;;;5044327;28;20051;-81
2022/07/20 08:24:48;;;;;;;8.95;6.70;;;;;;;;;;5044719;28;20038;-82
2022/07/20 08:27:34;;;;;;;9.00;7.18;;;;;;;;;;5043641;28;20033;-81
2022/07/20 08:30:21;;;;;;;8.90;7.05;;;;;;;;;;5030219;28;20051;-81
2022/07/20 08:33:07;;;;;;;8.30;7.35;;;;;;;;;;5043519;28;20065;-81
2022/07/20 08:35:53;;;;;;;8.40;6.85;;;;;;;;;;5046031;28;20529;-81
2022/07/20 08:38:38;;;;;;;9.13;7.35;;;;;;;;;;5044120;28;20040;-81
2022/07/20 08:41:25;;;;;;;10.10;6.18;;;;;;;;;;5044450;28;20033;-81
2022/07/20 08:44:10;;;;;;;8.57;6.88;;;;;;;;;;5032417;28;20049;-81
2022/07/20 08:46:56;;;;;;;8.10;6.30;;;;;;;;;;5045558;28;20048;-81
2022/07/20 08:49:44;;;;;;;7.72;6.38;;;;;;;;;;5045537;28;20034;-81
2022/07/20 08:52:30;;;;;;;10.63;7.38;;;;;;;;;;5017601;28;20040;-81
2022/07/20 08:55:16;;;;;;;8.25;6.47;;;;;;;;;;5030234;28;20041;-81
2022/07/20 08:58:01;;;;;;;8.45;6.32;;;;;;;;;;5029413;28;20092;-81
2022/07/20 09:00:47;;;;;;;9.30;6.72;;;;;;;;;;5044269;28;20049;-81
2022/07/20 09:03:33;;;;;;;9.88;7.05;;;;;;;;;;5031649;28;20529;-82
2022/07/20 09:06:19;;;;;;;9.90;6.75;;;;;;;;;;5030130;28;20420;-81
2022/07/20 09:09:05;;;;;;;7.60;6.30;;;;;;;;;;5031523;28;20041;-81
2022/07/20 09:11:51;;;;;;;10.20;6.68;;;;;;;;;;5030602;28;20089;-81
2022/07/20 09:14:43;;;;;;;7.18;5.82;;;;;;;;;;5031940;28;20475;-81
2022/07/20 09:17:28;;;;;;;7.78;5.82;;;;;;;;;;5030745;28;20040;-82
2022/07/20 09:20:14;;;;;;;9.25;6.88;;;;;;;;;;5045195;28;20060;-81
2022/07/20 09:23:01;;;;;;;7.13;6.05;;;;;;;;;;5044655;28;20037;-82
2022/07/20 09:25:55;;;;;;;8.05;6.47;;;;;;;;;;5031210;28;20037;-81
2022/07/20 09:28:51;;;;;;;6.82;5.57;;;;;;;;;;5043748;28;20045;-82
2022/07/20 09:31:37;;;;;;;8.32;5.20;;;;;;;;;;5047383;28;20124;-81
2022/07/20 09:34:23;;;;;;;7.03;5.95;;;;;;;;;;5046822;28;20057;-82
2022/07/20 09:37:16;;;;;;;6.80;5.20;;;;;;;;;;5047734;28;20172;-82
2022/07/20 09:40:02;;;;;;;7.10;5.75;;;;;;;;;;5047633;28;20565;-81
2022/07/20 09:42:49;;;;;;;6.78;4.88;;;;;;;;;;5049304;28;20041;-82
2022/07/20 09:45:36;;;;;;;5.88;4.97;;;;;;;;;;5033486;28;20488;-81
2022/07/20 09:48:24;;;;;;;7.18;4.82;;;;;;;;;;5047891;28;20029;-82
2022/07/20 09:51:20;;;;;;;6.10;5.25;;;;;;;;;;5034021;28;20049;-81
2022/07/20 09:54:07;;;;;;;6.53;4.78;;;;;;;;;;5047859;28;20033;-81
2022/07/20 09:56:55;;;;;;;5.72;5.15;;;;;;;;;;5033800;28;20526;-81
2022/07/20 09:59:46;;;;;;;5.72;4.57;;;;;;;;;;5032662;28;20055;-82
2022/07/20 10:02:32;;;;;;;6.32;4.38;;;;;;;;;;5033479;28;20118;-82
2022/07/20 10:05:19;;;;;;;5.05;4.30;;;;;;;;;;5047769;28;20045;-82
2022/07/20 10:08:06;;;;;;;5.38;4.22;;;;;;;;;;5019666;28;20179;-82
2022/07/20 10:10:51;;;;;;;5.00;3.97;;;;;;;;;;5034583;28;20077;-82
2022/07/20 10:13:38;;;;;;;6.50;4.78;;;;;;;;;;5046941;28;20038;-81
2022/07/20 10:16:35;;;;;;;5.00;4.25;;;;;;;;;;5033408;28;20473;-81
2022/07/20 10:19:47;;;;;;;6.65;4.18;;;;;;;;;;5033442;28;20037;-81
2022/07/20 10:22:33;;;;;;;;;;;;;;;;;;5033956;28;20507;-82
2022/07/20 10:25:19;;;;;;;6.07;4.50;;;;;;;;;;5048204;28;19963;-82
2022/07/20 10:28:24;;;;;;;4.72;4.18;;;;;;;;;;5048452;28;20124;-82
2022/07/20 10:31:16;;;;;;;5.53;4.45;;;;;;;;;;5046939;28;20053;-81
2022/07/20 10:34:05;;;;;;;4.97;3.78;;;;;;;;;;5032225;28;20068;-81
2022/07/20 10:37:25;;;;;;;6.13;4.18;;;;;;;;;;5047519;28;20483;-81
2022/07/20 10:40:14;;;;;;;6.18;4.57;;;;;;;;;;5047182;28;20535;-81
2022/07/20 10:43:20;;;;;;;5.47;3.92;;;;;;;;;;5046840;28;20044;-81
2022/07/20 10:46:34;;;;;;;5.30;3.45;;;;;;;;;;5032250;28;20035;-82
2022/07/20 10:49:20;;;;;;;5.78;3.85;;;;;;;;;;5044952;28;20048;-82
2022/07/20 10:52:30;;;;;;;5.43;3.65;;;;;;;;;;5046465;28;20034;-82
2022/07/20 10:55:34;;;;;;;4.65;3.60;;;;;;;;;;5046239;28;20419;-82
2022/07/20 10:58:29;;;;;;;5.20;3.55;;;;;;;;;;5046984;28;20060;-82
2022/07/20 11:01:16;;;;;;;4.82;3.72;;;;;;;;;;5047265;28;20559;-82
2022/07/20 11:04:02;;;;;;;4.63;3.60;;;;;;;;;;5032487;28;20092;-82
2022/07/20 11:06:48;;;;;;;6.22;3.85;;;;;;;;;;5047638;28;20041;-82
2022/07/20 11:09:34;;;;;;;5.68;3.25;;;;;;;;;;5032931;28;20040;-82
2022/07/20 11:12:29;;;;;;;3.75;2.95;;;;;;;;;;5046092;28;20340;-82
2022/07/20 11:15:15;;;;;;;3.58;2.88;;;;;;;;;;5047970;28;20041;-81
2022/07/20 11:18:00;;;;;;;4.80;3.28;;;;;;;;;;5031574;28;20041;-82
2022/07/20 11:20:49;;;;;;;4.00;3.13;;;;;;;;;;5032870;28;20037;-82
2022/07/20 11:23:46;;;;;;;4.40;3.35;;;;;;;;;;5032846;28;20459;-82
2022/07/20 11:26:31;;;;;;;4.97;3.42;;;;;;;;;;5032502;28;20034;-82
2022/07/20 11:29:17;;;;;;;4.13;2.80;;;;;;;;;;5047124;28;20047;-81
2022/07/20 11:32:07;;;;;;;3.72;2.40;;;;;;;;;;5045776;28;20045;-81
2022/07/20 11:34:53;;;;;;;3.45;2.78;;;;;;;;;;5033230;28;20524;-82
2022/07/20 11:37:39;;;;;;;3.80;3.08;;;;;;;;;;5046017;28;20037;-81
2022/07/20 11:40:25;;;;;;;3.42;2.72;;;;;;;;;;5032329;28;20127;-82
2022/07/20 11:43:13;;;;;;;3.60;3.00;;;;;;;;;;5031574;28;20037;-82
2022/07/20 11:46:15;;;;;;;3.42;2.75;;;;;;;;;;5031618;28;20037;-82
2022/07/20 11:49:04;;;;;;;5.80;3.60;;;;;;;;;;5044853;28;20196;-82
2022/07/20 11:51:53;;;;;;;4.15;2.97;;;;;;;;;;5031019;28;20034;-82
2022/07/20 11:54:39;;;;;;;4.25;2.80;;;;;;;;;;5032041;28;20033;-82
2022/07/20 11:57:25;;;;;;;4.05;2.72;;;;;;;;;;5043100;28;20037;-82
2022/07/20 12:00:13;;;;;;;5.53;2.50;;;;;;;;;;5032285;28;20049;-82
2022/07/20 12:02:58;;;;;;;5.95;4.18;;;;;;;;;;5044437;28;20053;-82
2022/07/20 12:05:44;;;;;;;4.55;3.03;;;;;;;;;;5046261;28;20045;-82
2022/07/20 12:08:30;;;;;;;3.45;2.47;;;;;;;;;;5045966;28;20037;-82
2022/07/20 12:11:15;;;;;;;4.50;3.40;;;;;;;;;;5043777;28;20492;-82
2022/07/20 12:14:01;;;;;;;5.00;3.10;;;;;;;;;;5030009;28;20404;-82
2022/07/20 12:16:49;;;;;;;3.42;2.67;;;;;;;;;;5045055;28;20419;-82
2022/07/20 12:19:35;;;;;;;4.50;2.85;;;;;;;;;;5029039;28;20041;-82
2022/07/20 12:22:26;;;;;;;3.83;2.95;;;;;;;;;;5043922;28;20037;-82
2022/07/20 12:25:11;;;;;;;3.60;2.58;;;;;;;;;;5043863;28;20030;-82
2022/07/20 12:27:57;;;;;;;3.65;2.58;;;;;;;;;;5042160;28;20115;-82
2022/07/20 12:30:45;;;;;;;4.97;2.90;;;;;;;;;;5042472;28;20530;-82
2022/07/20 12:33:31;;;;;;;3.88;2.70;;;;;;;;;;5028707;28;20145;-82
2022/07/20 12:36:17;;;;;;;3.92;2.58;;;;;;;;;;5042985;28;20527;-81
2022/07/20 12:39:04;;;;;;;3.33;2.42;;;;;;;;;;5030198;28;20104;-82
2022/07/20 12:42:07;;;;;;;3.65;2.50;;;;;;;;;;5030139;28;20037;-82
2022/07/20 12:45:00;;;;;;;5.20;3.50;;;;;;;;;;5031407;28;20049;-82
2022/07/20 12:47:46;;;;;;;4.78;2.55;;;;;;;;;;5029495;28;20038;-82
2022/07/20 12:50:31;;;;;;;3.28;2.45;;;;;;;;;;5043069;28;20046;-82
2022/07/20 12:53:17;;;;;;;4.22;2.53;;;;;;;;;;5029300;28;20041;-82
2022/07/20 12:56:04;;;;;;;4.57;2.78;;;;;;;;;;5029381;28;20048;-82
2022/07/20 12:58:50;;;;;;;3.20;2.33;;;;;;;;;;5029650;28;20087;-82
2022/07/20 13:01:36;;;;;;;4.70;2.58;;;;;;;;;;5044551;28;20491;-82
2022/07/20 13:04:22;;;;;;;3.60;2.30;;;;;;;;;;5027429;28;20424;-82
2022/07/20 13:07:08;;;;;;;3.75;2.88;;;;;;;;;;5029621;28;20037;-82
2022/07/20 13:09:54;;;;;;;3.57;2.60;;;;;;;;;;5005382;28;1131614;-82
2022/07/20 13:12:39;;;;;;;3.33;2.40;;;;;;;;;;5029607;28;20030;-82
2022/07/20 13:15:25;;;;;;;3.22;2.42;;;;;;;;;;5044006;28;20037;-82
2022/07/20 13:18:11;;;;;;;3.10;2.33;;;;;;;;;;5045061;28;20538;-82
2022/07/20 13:20:57;;;;;;;4.07;2.22;;;;;;;;;;5030338;28;20041;-82
2022/07/20 13:23:42;;;;;;;4.63;2.25;;;;;;;;;;5045555;28;20042;-82
2022/07/20 13:26:28;;;;;;;3.83;2.78;;;;;;;;;;5044946;28;20049;-82
2022/07/20 13:29:14;;;;;;;3.60;2.47;;;;;;;;;;5044934;28;20041;-82
2022/07/20 13:32:00;;;;;;;4.30;3.13;;;;;;;;;;5045109;28;20045;-82
2022/07/20 13:34:45;;;;;;;3.03;2.40;;;;;;;;;;5045207;28;20049;-81
2022/07/20 13:37:31;;;;;;;4.07;2.78;;;;;;;;;;5030647;28;20061;-82
2022/07/20 13:40:17;;;;;;;3.15;2.40;;;;;;;;;;5045068;28;20042;-82
2022/07/20 13:43:03;;;;;;;3.67;2.05;;;;;;;;;;5031157;28;20148;-82
2022/07/20 13:45:49;;;;;;;4.03;2.25;;;;;;;;;;5030738;28;20504;-82
2022/07/20 13:48:34;;;;;;;2.95;2.33;;;;;;;;;;5043401;28;20045;-82
2022/07/20 13:51:20;;;;;;;3.60;2.45;;;;;;;;;;5044972;28;20516;-82
2022/07/20 13:54:06;;;;;;;4.15;2.55;;;;;;;;;;5043640;28;20496;-82
2022/07/20 13:56:51;;;;;;;4.95;3.00;;;;;;;;;;5030798;28;20049;-82
2022/07/20 13:59:37;;;;;;;3.72;2.53;;;;;;;;;;5043412;28;20037;-82
2022/07/20 14:02:23;;;;;;;3.42;2.30;;;;;;;;;;5045433;28;20049;-81
2022/07/20 14:05:09;;;;;;;3.17;2.22;;;;;;;;;;5044425;28;20069;-82
2022/07/20 14:07:55;;;;;;;5.15;3.15;;;;;;;;;;5030371;28;20392;-82
2022/07/20 14:10:41;;;;;;;4.35;2.50;;;;;;;;;;5030524;28;20447;-82
2022/07/20 14:13:26;;;;;;;3.08;2.20;;;;;;;;;;5028397;28;20052;-82
2022/07/20 14:16:12;;;;;;;4.80;2.80;;;;;;;;;;5046999;28;20546;-82
2022/07/20 14:18:59;;;;;;;3.72;2.40;;;;;;;;;;5034359;28;20416;-81
2022/07/20 14:21:44;;;;;;;4.30;3.10;;;;;;;;;;5033671;28;20041;-82
2022/07/20 14:24:30;;;;;;;3.83;2.55;;;;;;;;;;5032052;28;20539;-81
2022/07/20 14:27:16;;;;;;;4.00;3.08;;;;;;;;;;5046133;28;20056;-81
2022/07/20 14:30:05;;;;;;;3.50;2.58;;;;;;;;;;5031699;28;20029;-82
2022/07/20 14:32:51;;;;;;;4.35;2.45;;;;;;;;;;5044900;28;20515;-81
2022/07/20 14:35:38;;;;;;;3.70;2.75;;;;;;;;;;5031748;28;20037;-82
2022/07/20 14:38:24;;;;;;;4.97;3.15;;;;;;;;;;5046638;28;20040;-81
2022/07/20 14:41:09;;;;;;;4.32;3.05;;;;;;;;;;5032989;28;20046;-82
2022/07/20 14:43:55;;;;;;;3.65;2.50;;;;;;;;;;5033156;28;20040;-82
2022/07/20 14:46:41;;;;;;;3.92;2.80;;;;;;;;;;5046387;28;20041;-82
2022/07/20 14:49:26;;;;;;;4.00;2.90;;;;;;;;;;5048145;28;20037;-82
2022/07/20 14:52:12;;;;;;;4.20;3.13;;;;;;;;;;5048170;28;20061;-82
2022/07/20 14:54:58;;;;;;;3.60;2.53;;;;;;;;;;5047890;28;20041;-82
2022/07/20 14:57:44;;;;;;;4.10;2.60;;;;;;;;;;5047264;28;20053;-82
2022/07/20 15:00:30;;;;;;;8.40;2.92;;;;;;;;;;5032242;28;20052;-82
2022/07/20 15:03:16;;;;;;;6.28;2.85;;;;;;;;;;5046414;28;20042;-82
2022/07/20 15:06:01;;;;;;;3.55;2.60;;;;;;;;;;5047289;28;20111;-82
2022/07/20 15:08:47;;;;;;;5.13;3.13;;;;;;;;;;5045324;28;20418;-82
2022/07/20 15:11:33;;;;;;;3.28;2.83;;;;;;;;;;5047302;28;20419;-82
2022/07/20 15:14:19;;;;;;;4.18;2.83;;;;;;;;;;5029538;28;20183;-82
2022/07/20 15:17:05;;;;;;;4.20;2.97;;;;;;;;;;5032889;28;20030;-81
2022/07/20 15:19:50;;;;;;;4.68;2.85;;;;;;;;;;5032918;28;20045;-82
2022/07/20 15:22:36;;;;;;;3.75;2.50;;;;;;;;;;5047139;28;20041;-82
2022/07/20 15:25:22;;;;;;;4.13;3.00;;;;;;;;;;5044891;28;20029;-82
2022/07/20 15:28:08;;;;;;;4.63;3.10;;;;;;;;;;5046240;28;20030;-82
2022/07/20 15:30:53;;;;;;;3.97;3.00;;;;;;;;;;5031982;28;20424;-82
2022/07/20 15:33:42;;;;;;;4.07;3.05;;;;;;;;;;5045529;28;20037;-81
2022/07/20 15:36:28;;;;;;;3.65;2.92;;;;;;;;;;5045637;28;20037;-81
2022/07/20 15:39:14;;;;;;;5.00;3.45;;;;;;;;;;5045528;28;20069;-81
2022/07/20 15:41:59;;;;;;;3.88;2.80;;;;;;;;;;5046474;28;20042;-81
2022/07/20 15:44:45;;;;;;;4.78;3.53;;;;;;;;;;5030715;28;20030;-82
2022/07/20 15:47:31;;;;;;;5.78;3.42;;;;;;;;;;5046573;28;20037;-82
2022/07/20 15:50:17;;;;;;;4.50;3.33;;;;;;;;;;5047124;28;20496;-82
2022/07/20 15:53:03;;;;;;;5.93;3.30;;;;;;;;;;5030237;28;20056;-82
2022/07/20 15:55:49;;;;;;;6.20;3.80;;;;;;;;;;5017564;28;20067;-82
2022/07/20 15:58:36;;;;;;;5.38;3.75;;;;;;;;;;5032676;28;20110;-82
2022/07/20 16:01:22;;;;;;;5.25;4.10;;;;;;;;;;5045937;28;20045;-82
2022/07/20 16:04:07;;;;;;;6.25;4.55;;;;;;;;;;5029704;28;20077;-81
2022/07/20 16:06:53;;;;;;;6.72;4.32;;;;;;;;;;5044540;28;20046;-81
2022/07/20 16:09:40;;;;;;;4.82;3.95;;;;;;;;;;5044765;28;20408;-82
2022/07/20 16:12:25;;;;;;;5.53;3.90;;;;;;;;;;5030952;28;20044;-81
2022/07/20 16:15:11;;;;;;;4.72;3.75;;;;;;;;;;5045056;28;20476;-82
2022/07/20 16:17:57;;;;;;;4.93;3.97;;;;;;;;;;5044774;28;20167;-82
2022/07/20 16:20:43;;;;;;;5.55;4.10;;;;;;;;;;5044236;28;20037;-82
2022/07/20 16:23:28;;;;;;;6.72;4.20;;;;;;;;;;5044602;28;20041;-82
2022/07/20 16:26:16;;;;;;;5.45;4.18;;;;;;;;;;5044163;28;20037;-82
2022/07/20 16:29:01;;;;;;;5.38;4.00;;;;;;;;;;5043358;28;20530;-82
2022/07/20 16:31:47;;;;;;;5.00;4.10;;;;;;;;;;5045875;28;20053;-82
2022/07/20 16:34:34;;;;;;;5.07;3.78;;;;;;;;;;5043754;28;20071;-82
2022/07/20 16:37:19;;;;;;;6.43;4.13;;;;;;;;;;5030943;28;20040;-82